Time,TemperatureF,DewpointF,PressureIn,WindDirection,WindDirectionDegrees,WindSpeedMPH,WindSpeedGustMPH,Humidity,HourlyPrecipIn,Conditions,Clouds,dailyrainin,SoftwareType,DateUTC
2017-02-23 00:26:00,5.0,0.0,-100.00,East,100,3.0,5.0,81,-99.99,,,-99.99,,2017-02-23 09:26:00,
2017-02-23 00:55:00,5.0,0.0,-100.00,East,100,3.0,5.0,81,-99.99,,,-99.99,,2017-02-23 09:55:00,
2017-02-23 01:46:00,4.0,0.0,-100.00,ESE,108,3.0,5.0,82,-99.99,,,-99.99,,2017-02-23 10:46:00,
2017-02-23 02:25:00,6.0,2.0,-100.00,SSE,159,2.0,6.0,83,-99.99,,,-99.99,,2017-02-23 11:25:00,
2017-02-23 02:46:00,6.0,2.0,-100.00,SSE,159,2.0,6.0,83,-99.99,,,-99.99,,2017-02-23 11:46:00,
2017-02-23 03:26:00,6.0,2.0,-100.00,ESE,107,2.0,-999.0,84,-99.99,,,-99.99,,2017-02-23 12:26:00,
2017-02-23 03:46:00,6.0,2.0,-100.00,ESE,107,2.0,4.0,84,-99.99,,,-99.99,,2017-02-23 12:46:00,
2017-02-23 04:25:00,6.0,2.0,-100.00,East,91,4.0,6.0,85,-99.99,,,-99.99,,2017-02-23 13:25:00,
2017-02-23 04:55:00,6.0,2.0,-100.00,East,91,4.0,6.0,85,-99.99,,,-99.99,,2017-02-23 13:55:00,
2017-02-23 05:25:00,8.0,4.0,-100.00,East,85,3.0,-999.0,84,-99.99,,,-99.99,,2017-02-23 14:25:00,
2017-02-23 06:25:00,12.0,8.0,-100.00,SE,137,1.0,4.0,84,-99.99,,,-99.99,,2017-02-23 15:25:00,
2017-02-23 07:35:00,13.0,9.0,-100.00,SSW,209,1.0,3.0,84,-99.99,,,-99.99,,2017-02-23 16:35:00,
2017-02-23 08:25:00,10.0,7.0,-100.00,NE,44,2.0,4.0,86,-99.99,,,-99.99,,2017-02-23 17:25:00,
2017-02-23 08:48:00,10.0,7.0,-100.00,NE,44,2.0,4.0,86,-99.99,,,-99.99,,2017-02-23 17:48:00,
2017-02-23 09:26:00,13.0,9.0,-100.00,ENE,61,1.0,5.0,85,-99.99,,,-99.99,,2017-02-23 18:26:00,
2017-02-23 09:46:00,13.0,9.0,-100.00,ENE,61,1.0,5.0,85,-99.99,,,-99.99,,2017-02-23 18:46:00,
2017-02-23 10:48:00,16.0,11.0,-100.00,SSE,149,1.0,2.0,80,-99.99,,,-99.99,,2017-02-23 19:48:00,
2017-02-23 11:46:00,21.0,13.0,-100.00,North,-9999,0.0,3.0,70,-99.99,,,-99.99,,2017-02-23 20:46:00,
2017-02-23 12:26:00,19.0,9.0,-100.00,NW,321,2.0,6.0,65,-99.99,,,-99.99,,2017-02-23 21:26:00,
2017-02-23 13:29:00,19.0,8.0,-100.00,NW,320,4.0,7.0,61,-99.99,,,-99.99,,2017-02-23 22:29:00,
2017-02-23 13:48:00,19.0,8.0,-100.00,NW,320,4.0,7.0,61,-99.99,,,-99.99,,2017-02-23 22:48:00,
2017-02-23 14:55:00,20.0,10.0,-100.00,WNW,295,1.0,6.0,64,-99.99,,,-99.99,,2017-02-23 23:55:00,
2017-02-23 15:36:00,23.0,10.0,-100.00,NE,56,2.0,6.0,58,-99.99,,,-99.99,,2017-02-24 00:36:00,
2017-02-23 16:25:00,20.0,10.0,-100.00,NW,326,2.0,6.0,64,-99.99,,,-99.99,,2017-02-24 01:25:00,
2017-02-23 17:26:00,18.0,9.0,-100.00,WNW,290,2.0,6.0,66,-99.99,,,-99.99,,2017-02-24 02:26:00,
2017-02-23 17:45:00,18.0,9.0,-100.00,WNW,290,2.0,6.0,66,-99.99,,,-99.99,,2017-02-24 02:45:00,
2017-02-23 18:25:00,16.0,8.0,-100.00,West,272,1.0,5.0,71,-99.99,,,-99.99,,2017-02-24 03:25:00,
2017-02-23 18:48:00,16.0,8.0,-100.00,West,272,1.0,5.0,71,-99.99,,,-99.99,,2017-02-24 03:48:00,